Kezdőlap
METAR-TAF:

METAR-TAF

Repülőterek :

Ningbo, Kína

földrajzi szélesség: 29-49-36N, földrajzi hosszúság: 121-27-43E, magasság: 4 m

Jelenlegi meteorológiai megfigyelések

A jelentés 1 órával és 0 perccel ezelõtt készült, 19:00 UTC
Különbözõ irányokból fújó szél 2 kt
Hőmérséklet 25°C
Páratartalom 100%
Légköri nyomás 1004 hPa
Látótávolság: 6000 m

METAR: ZSNB 071900Z VRB01MPS 6000 NSC 25/25 Q1004 NOSIG

Idő: 04:00 (20:00 UTC)

Előrejelzés

A jelentés 4 órával és 49 perccel ezelõtt készült, 15:11 UTC
Az előrejelzés 07-én 18 óra UTC és 08-én 18 óra UTC között érvényes
Déli szél 8 kt
Látótávolság: 4000 m
Szakadozott felhőzet 3000 lábon
Párásság
08-én 06 óra UTC és 08-én 12 óra UTC között ideiglenes
Kevés felhő 500 lábon
Szakadozott felhőzet 2000 lábon
Szórványos felhőzet 3300 lábon, Cumulonimbus.
záporok

TAF: ZSNB 071511Z 0718/0818 17004MPS 4000 BR BKN030 TX29/0806Z TN25/0721Z TEMPO 0806/0812 SHRA FEW005 BKN020 SCT033CB

Meteorológiai megfigyelések és előrejelzések több, mint 4000 repülőtéren (METAR és TAF jelentéseket).

A térképen piros és sárga pontok jelzik az elérhető meteorológiai állomásokat.

Mozgassa az egeret a pont fölött, hogy megjelenjen az állomás neve.

Azután kattintson az időjárási megfigyelések és előrejelzések megtekintéséhez.

A térkép megváltoztatása: kattintson a fekete keresztel jelölt zöld gombra ráközelítéshez, a vonallal jelölt zöld gombra távolításhoz, vagy a zöld nyilakra a szomszédos térképek eléréséhez.


METAR-TAF: